3B4 weather

Littlebrook Air Park
Eliot, Maine, United States

Public forecast

Using degrees Fahrenheit for public forecast. Weather courtesy of forecast.io.

Closest aviation weather report (METAR) to Littlebrook Air Park

Closest report is Portsmouth International at Pease Airport, 4.5 nm (8.3 km) SSW. Retrieved 2019/10/17 07:56 UTC (58 minutes ago):

KPSM 170756Z 06026G44KT 1 1/4SM R16/P6000FT -RA BR SCT002 BKN006 OVC015 13/13 A2894 RMK AO2A PK WND 05046/0657 SLP803 P0064 T01320127

Closest aviation forecast (TAF) to Littlebrook Air Park

Closest forecast is Portsmouth International at Pease Airport, 4.5 nm (8.3 km) SSW. Retrieved 2019/10/17 06:22 UTC (3 hours ago):

TAF KPSM 170520Z 1706/1806 08022G45KT 2SM -RA BR OVC006 WS020/10054KT FM171200 20018G35KT 6SM SHRA BR OVC015 FM171900 22012G20KT P6SM OVC015 FM172200 25010G17KT P6SM BKN045